Time;durP1;ratioP1;P1;durP2;ratioP2;P2;SDS_P1;SDS_P2;PMS_P1;PMS_P2;Temp;Humidity;BMP_temperature;BMP_pressure;BME280_temperature;BME280_humidity;BME280_pressure;Samples;Min_cycle;Max_cycle;Signal;HPM_P1;HPM_P2
2022/11/30 00:00:38;;;;;;;21.07;10.47;;;7.60;99.90;;;;;;4730292;28;20452;-71
2022/11/30 00:03:04;;;;;;;23.53;10.97;;;7.50;99.90;;;;;;4741032;28;20702;-70
2022/11/30 00:05:29;;;;;;;21.03;10.30;;;7.60;99.90;;;;;;4723387;28;20248;-70
2022/11/30 00:07:55;;;;;;;24.90;10.57;;;7.60;99.90;;;;;;4738925;28;20483;-71
2022/11/30 00:10:21;;;;;;;19.87;8.93;;;7.60;99.90;;;;;;4718145;28;20196;-70
2022/11/30 00:12:48;;;;;;;18.33;9.60;;;7.60;99.90;;;;;;4730871;28;20689;-70
2022/11/30 00:15:16;;;;;;;26.10;10.07;;;7.60;99.90;;;;;;4722149;28;20456;-71
2022/11/30 00:17:44;;;;;;;21.70;10.00;;;7.60;99.90;;;;;;4728089;28;20466;-70
2022/11/30 00:20:11;;;;;;;27.30;10.17;;;7.60;99.90;;;;;;4748543;28;20955;-71
2022/11/30 00:22:37;;;;;;;22.70;9.80;;;7.60;99.90;;;;;;4746519;28;20487;-71
2022/11/30 00:25:03;;;;;;;25.33;9.63;;;7.60;99.90;;;;;;4737773;28;20538;-70
2022/11/30 00:27:33;;;;;;;20.50;9.77;;;7.60;99.90;;;;;;4709087;28;20196;-71
2022/11/30 00:29:59;;;;;;;22.10;9.70;;;7.60;99.90;;;;;;4739363;28;21001;-70
2022/11/30 00:32:27;;;;;;;21.33;10.00;;;7.60;99.90;;;;;;4735912;28;20468;-71
2022/11/30 00:34:53;;;;;;;23.30;11.47;;;7.60;99.90;;;;;;4754464;28;20201;-70
2022/11/30 00:37:19;;;;;;;20.77;9.27;;;7.60;99.90;;;;;;4743934;28;20454;-71
2022/11/30 00:39:45;;;;;;;26.47;10.90;;;7.60;99.90;;;;;;4724006;28;20192;-71
2022/11/30 00:42:11;;;;;;;24.27;10.23;;;7.60;99.90;;;;;;4737059;28;20469;-71
2022/11/30 00:44:36;;;;;;;21.23;9.97;;;7.60;99.90;;;;;;4755496;28;20197;-71
2022/11/30 00:47:02;;;;;;;24.33;9.97;;;7.60;99.90;;;;;;4737600;28;20278;-70
2022/11/30 00:49:28;;;;;;;22.63;10.73;;;7.60;99.90;;;;;;4747841;28;20606;-71
2022/11/30 00:51:53;;;;;;;22.63;9.03;;;7.60;99.90;;;;;;4744264;28;20589;-70
2022/11/30 00:54:19;;;;;;;25.27;11.67;;;7.60;99.90;;;;;;4732097;28;20248;-71
2022/11/30 00:56:45;;;;;;;26.67;10.10;;;7.60;99.90;;;;;;4735101;28;20205;-71
2022/11/30 00:59:11;;;;;;;25.00;11.07;;;7.60;99.90;;;;;;4744411;28;20193;-71
2022/11/30 01:01:37;;;;;;;24.47;11.40;;;7.50;99.90;;;;;;4742333;28;20934;-71
2022/11/30 01:04:04;;;;;;;24.27;10.00;;;7.50;99.90;;;;;;4733899;28;20236;-71
2022/11/30 01:06:29;;;;;;;25.67;10.80;;;7.50;99.90;;;;;;4728410;28;20236;-70
2022/11/30 01:08:56;;;;;;;25.23;10.87;;;7.50;99.90;;;;;;4742289;28;20458;-68
2022/11/30 01:11:24;;;;;;;23.30;11.43;;;7.50;99.90;;;;;;4738002;28;20194;-71
2022/11/30 01:13:51;;;;;;;28.43;10.90;;;7.40;99.90;;;;;;4734665;28;20498;-70
2022/11/30 01:16:19;;;;;;;25.27;10.10;;;7.40;99.90;;;;;;4733237;28;20451;-71
2022/11/30 01:18:46;;;;;;;20.67;10.37;;;7.40;99.90;;;;;;4744068;28;20462;-71
2022/11/30 01:21:15;;;;;;;23.70;10.00;;;7.50;99.90;;;;;;4740385;28;20530;-70
2022/11/30 01:23:41;;;;;;;25.03;11.53;;;7.40;99.90;;;;;;4735799;28;20474;-70
2022/11/30 01:26:07;;;;;;;25.07;11.30;;;7.40;99.90;;;;;;4746232;28;20483;-71
2022/11/30 01:28:33;;;;;;;27.90;10.10;;;7.40;99.90;;;;;;4757227;28;20239;-71
2022/11/30 01:31:04;;;;;;;24.13;11.03;;;7.50;99.90;;;;;;4740541;28;20459;-71
2022/11/30 01:33:30;;;;;;;19.73;10.37;;;7.40;99.90;;;;;;4728546;28;20492;-71
2022/11/30 01:36:05;;;;;;;20.43;9.80;;;7.50;99.90;;;;;;4734920;28;20493;-71
2022/11/30 01:38:36;;;;;;;24.63;11.47;;;7.40;99.90;;;;;;4751454;28;20430;-71
2022/11/30 01:41:02;;;;;;;27.37;12.73;;;7.50;99.90;;;;;;4735158;28;20549;-70
2022/11/30 01:43:40;;;;;;;31.13;10.90;;;7.50;99.90;;;;;;4732319;28;20528;-71
2022/11/30 01:46:30;;;;;;;29.27;11.77;;;7.40;99.90;;;;;;4756076;28;21014;-70
2022/11/30 01:49:03;;;;;;;26.30;11.03;;;7.50;99.90;;;;;;4745442;28;20497;-69
2022/11/30 01:51:41;;;;;;;30.93;12.03;;;7.40;99.90;;;;;;4756371;28;20459;-71
2022/11/30 01:54:11;;;;;;;29.33;11.03;;;7.40;99.90;;;;;;4731661;28;20467;-70
2022/11/30 01:56:48;;;;;;;27.60;11.60;;;7.50;99.90;;;;;;4736745;28;20455;-71
2022/11/30 01:59:14;;;;;;;24.60;11.00;;;7.50;99.90;;;;;;4747952;28;20462;-70
2022/11/30 02:01:40;;;;;;;30.40;11.37;;;7.50;99.90;;;;;;4752763;28;20463;-71
2022/11/30 02:04:14;;;;;;;29.60;11.50;;;7.50;99.90;;;;;;4732447;28;20458;-71
2022/11/30 02:06:40;;;;;;;31.27;13.03;;;7.50;99.90;;;;;;4739280;28;20295;-70
2022/11/30 02:09:06;;;;;;;31.70;11.60;;;7.50;99.90;;;;;;4736254;28;21030;-71
2022/11/30 02:11:32;;;;;;;25.80;12.60;;;7.50;99.90;;;;;;4724561;28;20448;-71
2022/11/30 02:14:10;;;;;;;29.10;10.60;;;7.50;99.90;;;;;;4751259;28;20454;-70
2022/11/30 02:17:09;;;;;;;27.40;11.07;;;7.50;99.90;;;;;;4721911;28;20444;-70
2022/11/30 02:19:59;;;;;;;25.80;10.77;;;7.50;99.90;;;;;;4726435;28;20510;-70
2022/11/30 02:22:46;;;;;;;27.63;12.07;;;7.60;99.90;;;;;;4751395;28;20708;-70
2022/11/30 02:25:33;;;;;;;42.23;12.23;;;7.60;99.90;;;;;;4741799;28;21033;-71
2022/11/30 02:28:29;;;;;;;22.07;10.20;;;7.60;99.90;;;;;;4727652;28;20947;-71
2022/11/30 02:30:58;;;;;;;27.83;10.60;;;7.60;99.90;;;;;;4737171;28;20509;-70
2022/11/30 02:33:28;;;;;;;32.27;13.07;;;7.60;99.90;;;;;;4731156;28;20555;-70
2022/11/30 02:35:56;;;;;;;30.20;11.07;;;7.60;99.90;;;;;;4753961;28;20460;-71
2022/11/30 02:38:25;;;;;;;31.13;12.57;;;7.60;99.90;;;;;;4741359;28;20480;-70
2022/11/30 02:40:50;;;;;;;25.87;10.90;;;7.60;99.90;;;;;;4727249;28;20443;-71
2022/11/30 02:43:19;;;;;;;24.63;10.07;;;7.60;99.90;;;;;;4753497;28;20993;-70
2022/11/30 02:45:49;;;;;;;28.50;11.27;;;7.60;99.90;;;;;;4752209;28;20220;-70
2022/11/30 02:48:19;;;;;;;27.23;11.57;;;7.60;99.90;;;;;;4745332;28;20462;-71
2022/11/30 02:50:50;;;;;;;25.57;9.13;;;7.60;99.90;;;;;;4746114;28;20459;-70
2022/11/30 02:53:16;;;;;;;22.80;9.33;;;7.70;99.90;;;;;;4749447;28;20455;-71
2022/11/30 02:55:42;;;;;;;21.07;9.50;;;7.70;99.90;;;;;;4746097;28;20538;-70
2022/11/30 02:58:07;;;;;;;23.07;9.83;;;7.70;99.90;;;;;;4754890;28;20201;-71
2022/11/30 03:00:33;;;;;;;25.60;11.67;;;7.70;99.90;;;;;;4754526;28;20209;-71
2022/11/30 03:02:58;;;;;;;35.30;12.37;;;7.70;99.90;;;;;;4746569;28;20212;-71
2022/11/30 03:05:24;;;;;;;27.40;10.00;;;7.70;99.90;;;;;;4745911;28;20711;-71
2022/11/30 03:07:50;;;;;;;27.60;11.07;;;7.60;99.90;;;;;;4736159;28;20189;-71
2022/11/30 03:10:16;;;;;;;22.93;10.93;;;7.70;99.90;;;;;;4754257;28;20593;-71
2022/11/30 03:12:41;;;;;;;23.03;10.80;;;7.70;99.90;;;;;;4748427;28;20792;-71
2022/11/30 03:15:08;;;;;;;32.50;10.70;;;7.70;99.90;;;;;;4735844;28;20475;-71
2022/11/30 03:17:33;;;;;;;31.17;11.50;;;7.70;99.90;;;;;;4745502;28;20193;-71
2022/11/30 03:19:59;;;;;;;26.33;10.37;;;7.70;99.90;;;;;;4758100;28;20455;-71
2022/11/30 03:22:24;;;;;;;35.53;10.70;;;7.70;99.90;;;;;;4732210;28;20233;-71
2022/11/30 03:24:50;;;;;;;30.30;11.67;;;7.70;99.90;;;;;;4743425;28;20220;-69
2022/11/30 03:27:16;;;;;;;32.60;12.10;;;7.70;99.90;;;;;;4734725;28;20606;-71
2022/11/30 03:29:41;;;;;;;25.03;10.87;;;7.70;99.90;;;;;;4740329;28;20197;-71
2022/11/30 03:32:07;;;;;;;28.97;10.57;;;7.70;99.90;;;;;;4733695;28;20228;-71
2022/11/30 03:34:33;;;;;;;27.03;11.30;;;7.70;99.90;;;;;;4746811;28;20193;-70
2022/11/30 03:36:58;;;;;;;26.47;10.63;;;7.60;99.90;;;;;;4745524;28;20203;-69
2022/11/30 03:39:24;;;;;;;32.93;12.47;;;7.70;99.90;;;;;;4751294;28;20231;-71
2022/11/30 03:41:50;;;;;;;24.57;9.97;;;7.70;99.90;;;;;;4743679;28;20211;-71
2022/11/30 03:44:16;;;;;;;26.47;11.00;;;7.70;99.90;;;;;;4731060;28;20197;-70
2022/11/30 03:46:41;;;;;;;27.87;10.73;;;7.70;99.90;;;;;;4730685;28;20553;-70
2022/11/30 03:49:07;;;;;;;26.83;10.37;;;7.70;99.90;;;;;;4764289;28;20581;-71
2022/11/30 03:51:33;;;;;;;26.90;10.17;;;7.70;99.90;;;;;;4757386;28;20201;-70
2022/11/30 03:53:59;;;;;;;27.90;11.03;;;7.60;99.90;;;;;;4749630;28;20556;-71
2022/11/30 03:56:24;;;;;;;31.47;11.27;;;7.60;99.90;;;;;;4736394;28;20280;-71
2022/11/30 03:58:50;;;;;;;24.13;9.83;;;7.60;99.90;;;;;;4733151;28;20263;-71
2022/11/30 04:01:21;;;;;;;33.23;11.97;;;7.60;99.90;;;;;;4749439;28;20225;-71
2022/11/30 04:03:47;;;;;;;24.50;11.90;;;7.60;99.90;;;;;;4736394;28;20547;-71
2022/11/30 04:06:13;;;;;;;25.07;12.40;;;7.60;99.90;;;;;;4729369;28;20488;-71
2022/11/30 04:08:40;;;;;;;32.07;12.23;;;7.60;99.90;;;;;;4727982;28;20440;-70
2022/11/30 04:11:06;;;;;;;25.37;9.77;;;7.60;99.90;;;;;;4733861;28;20455;-70
2022/11/30 04:13:33;;;;;;;27.73;11.70;;;7.60;99.90;;;;;;4753764;28;20566;-70
2022/11/30 04:16:00;;;;;;;23.07;9.87;;;7.60;99.90;;;;;;4739618;28;20459;-71
2022/11/30 04:18:27;;;;;;;22.97;10.93;;;7.60;99.90;;;;;;4734942;28;20448;-71
2022/11/30 04:20:55;;;;;;;20.20;10.10;;;7.60;99.90;;;;;;4728520;28;20470;-71
2022/11/30 04:23:21;;;;;;;27.50;11.07;;;7.60;99.90;;;;;;4747256;28;20456;-70
2022/11/30 04:25:48;;;;;;;23.50;10.00;;;7.60;99.90;;;;;;4744773;28;20487;-70
2022/11/30 04:28:15;;;;;;;24.73;10.50;;;7.60;99.90;;;;;;4735758;28;20443;-71
2022/11/30 04:30:41;;;;;;;24.73;9.97;;;7.60;99.90;;;;;;4728606;28;20446;-71
2022/11/30 04:33:07;;;;;;;23.33;10.87;;;7.60;99.90;;;;;;4745465;28;20467;-70
2022/11/30 04:35:33;;;;;;;21.70;10.30;;;7.70;99.90;;;;;;4753418;28;20481;-70
2022/11/30 04:38:00;;;;;;;27.70;10.80;;;7.70;99.90;;;;;;4750434;28;20202;-71
2022/11/30 04:40:25;;;;;;;23.20;10.10;;;7.70;99.90;;;;;;4755083;28;21024;-70
2022/11/30 04:42:51;;;;;;;23.27;9.33;;;7.70;99.90;;;;;;4725540;28;20495;-71
2022/11/30 04:45:17;;;;;;;18.57;8.77;;;7.70;99.90;;;;;;4730756;28;20236;-71
2022/11/30 04:47:42;;;;;;;20.90;9.20;;;7.70;99.90;;;;;;4736554;28;20197;-70
2022/11/30 04:50:09;;;;;;;21.70;10.53;;;7.70;99.90;;;;;;4744316;28;20287;-71
2022/11/30 04:52:34;;;;;;;26.40;9.80;;;7.70;99.90;;;;;;4737645;28;20296;-71
2022/11/30 04:55:00;;;;;;;19.77;8.27;;;7.70;99.90;;;;;;4745702;28;20479;-71
2022/11/30 04:57:26;;;;;;;27.23;9.80;;;7.70;99.90;;;;;;4739489;28;20201;-71
2022/11/30 04:59:51;;;;;;;19.17;9.63;;;7.70;99.90;;;;;;4740366;28;20689;-71
2022/11/30 05:02:17;;;;;;;25.80;11.20;;;7.60;99.90;;;;;;4726398;28;20209;-71
2022/11/30 05:04:43;;;;;;;26.70;10.20;;;7.70;99.90;;;;;;4749559;28;20666;-70
2022/11/30 05:07:09;;;;;;;22.10;10.87;;;7.70;99.90;;;;;;4734051;28;20197;-71
2022/11/30 05:09:35;;;;;;;28.60;10.67;;;7.70;99.90;;;;;;4750642;28;20238;-71
2022/11/30 05:12:00;;;;;;;26.00;10.60;;;7.70;99.90;;;;;;4726044;28;20180;-71
2022/11/30 05:14:26;;;;;;;21.50;9.83;;;7.70;99.90;;;;;;4742994;28;20489;-71
2022/11/30 05:16:52;;;;;;;20.90;8.90;;;7.70;99.90;;;;;;4746629;28;20197;-71
2022/11/30 05:19:17;;;;;;;20.00;8.97;;;7.70;99.90;;;;;;4737216;28;20180;-71
2022/11/30 05:21:43;;;;;;;30.47;9.80;;;7.70;99.90;;;;;;4746507;28;20768;-71
2022/11/30 05:24:09;;;;;;;20.43;9.57;;;7.70;99.90;;;;;;4750571;28;20266;-70
2022/11/30 05:26:35;;;;;;;26.93;8.90;;;7.80;99.90;;;;;;4741529;28;20495;-71
2022/11/30 05:29:03;;;;;;;20.07;9.03;;;7.70;99.90;;;;;;4747086;28;20455;-70
2022/11/30 05:31:28;;;;;;;20.40;10.10;;;7.70;99.90;;;;;;4731762;28;20440;-71
2022/11/30 05:33:54;;;;;;;21.60;10.17;;;7.70;99.90;;;;;;4749012;28;20998;-70
2022/11/30 05:36:20;;;;;;;23.10;11.30;;;7.70;99.90;;;;;;4740543;28;20204;-70
2022/11/30 05:38:46;;;;;;;24.30;11.17;;;7.70;99.90;;;;;;4728960;28;20243;-71
2022/11/30 05:41:12;;;;;;;20.87;10.67;;;7.70;99.90;;;;;;4728997;28;20858;-70
2022/11/30 05:43:37;;;;;;;23.13;11.00;;;7.70;99.90;;;;;;4743964;28;20360;-70
2022/11/30 05:46:05;;;;;;;24.50;9.13;;;7.70;99.90;;;;;;4735913;28;20722;-72
2022/11/30 05:48:30;;;;;;;15.53;7.33;;;7.70;99.90;;;;;;4748940;28;20204;-70
2022/11/30 05:51:04;;;;;;;21.70;8.80;;;7.70;99.90;;;;;;4753968;28;20466;-71
2022/11/30 05:53:30;;;;;;;19.33;8.67;;;7.70;99.90;;;;;;4754880;28;20212;-71
2022/11/30 05:55:59;;;;;;;21.83;8.97;;;7.70;99.90;;;;;;4754427;28;20485;-71
2022/11/30 05:58:25;;;;;;;17.30;8.03;;;7.70;99.90;;;;;;4733016;28;20201;-71
2022/11/30 06:00:51;;;;;;;21.90;8.90;;;7.80;99.90;;;;;;4736384;28;20459;-70
2022/11/30 06:03:16;;;;;;;15.13;6.70;;;7.70;99.90;;;;;;4744133;28;20220;-70
2022/11/30 06:05:42;;;;;;;16.33;8.00;;;7.80;99.90;;;;;;4752319;28;20228;-71
2022/11/30 06:08:07;;;;;;;15.53;8.33;;;7.80;99.90;;;;;;4752059;28;20267;-70
2022/11/30 06:10:33;;;;;;;16.00;7.33;;;7.80;99.90;;;;;;4743914;28;20200;-71
2022/11/30 06:13:06;;;;;;;23.10;8.30;;;7.80;99.90;;;;;;4736536;28;20296;-70
2022/11/30 06:15:31;;;;;;;23.20;7.77;;;7.80;99.90;;;;;;4734784;28;20201;-70
2022/11/30 06:17:57;;;;;;;15.97;9.23;;;7.80;99.90;;;;;;4728673;28;21051;-70
2022/11/30 06:20:25;;;;;;;17.60;8.53;;;7.80;99.90;;;;;;4755189;28;20193;-71
2022/11/30 06:22:51;;;;;;;15.87;7.23;;;7.80;99.90;;;;;;4741022;28;20197;-70
2022/11/30 06:25:17;;;;;;;16.43;7.90;;;7.80;99.90;;;;;;4738848;28;21071;-71
2022/11/30 06:27:42;;;;;;;22.00;8.63;;;7.80;99.90;;;;;;4754403;28;20205;-71
2022/11/30 06:30:09;;;;;;;15.60;7.03;;;7.80;99.90;;;;;;4705420;28;20688;-70
2022/11/30 06:32:34;;;;;;;11.50;6.87;;;7.80;99.90;;;;;;4754016;28;20263;-71
2022/11/30 06:35:00;;;;;;;16.80;8.30;;;7.80;99.90;;;;;;4744594;28;20468;-71
2022/11/30 06:37:26;;;;;;;16.37;7.40;;;7.80;99.90;;;;;;4736441;28;20253;-72
2022/11/30 06:39:51;;;;;;;15.67;7.37;;;7.80;99.90;;;;;;4748078;28;20211;-71
2022/11/30 06:42:18;;;;;;;14.40;7.50;;;7.80;99.90;;;;;;4720464;28;20220;-70
2022/11/30 06:44:44;;;;;;;15.97;7.40;;;7.90;99.90;;;;;;4754045;28;20216;-70
2022/11/30 06:47:10;;;;;;;16.03;7.60;;;7.80;99.90;;;;;;4744842;28;20443;-70
2022/11/30 06:49:36;;;;;;;14.50;7.03;;;7.80;99.90;;;;;;4741267;28;20224;-71
2022/11/30 06:52:01;;;;;;;15.33;7.70;;;7.80;99.90;;;;;;4747675;28;20219;-71
2022/11/30 06:54:27;;;;;;;16.70;7.13;;;7.90;99.90;;;;;;4738222;28;20190;-71
2022/11/30 06:56:52;;;;;;;15.10;6.37;;;7.80;99.90;;;;;;4740023;28;20189;-70
2022/11/30 06:59:18;;;;;;;14.80;7.07;;;7.90;99.90;;;;;;4748023;28;20192;-71
2022/11/30 07:01:44;;;;;;;16.03;8.30;;;7.90;99.90;;;;;;4743166;28;20247;-71
2022/11/30 07:04:09;;;;;;;17.07;7.60;;;7.90;99.90;;;;;;4755072;28;20608;-71
2022/11/30 07:06:35;;;;;;;14.97;7.50;;;7.90;99.90;;;;;;4731586;28;20225;-70
2022/11/30 07:09:01;;;;;;;16.67;7.70;;;7.90;99.90;;;;;;4746685;28;20201;-71
2022/11/30 07:11:26;;;;;;;11.97;6.50;;;7.80;99.90;;;;;;4739749;28;20197;-71
2022/11/30 07:13:52;;;;;;;14.40;7.70;;;7.80;99.90;;;;;;4723669;28;20630;-70
2022/11/30 07:16:18;;;;;;;20.27;7.00;;;7.80;99.90;;;;;;4744193;28;20194;-71
2022/11/30 07:18:43;;;;;;;18.60;7.97;;;7.90;99.90;;;;;;4748947;28;20665;-71
2022/11/30 07:21:10;;;;;;;15.87;7.80;;;7.90;99.90;;;;;;4738673;28;20212;-71
2022/11/30 07:26:21;;;;;;;15.70;7.50;;;7.80;99.90;;;;;;4744818;28;20499;-70
2022/11/30 07:28:48;;;;;;;18.30;7.57;;;7.90;99.90;;;;;;4763786;28;20456;-70
2022/11/30 07:31:18;;;;;;;15.53;7.03;;;7.90;99.90;;;;;;4755882;28;20460;-70
2022/11/30 07:33:44;;;;;;;17.07;8.10;;;7.90;99.90;;;;;;4776598;28;20509;-71
2022/11/30 07:36:11;;;;;;;11.20;6.57;;;7.90;99.90;;;;;;4756893;28;20493;-71
2022/11/30 07:38:37;;;;;;;17.03;7.07;;;7.80;99.90;;;;;;4754709;28;20463;-71
2022/11/30 07:41:03;;;;;;;12.97;6.10;;;7.80;99.90;;;;;;4748907;28;20447;-71
2022/11/30 07:43:29;;;;;;;16.77;7.07;;;7.90;99.90;;;;;;4761103;28;20536;-70
2022/11/30 07:45:55;;;;;;;13.97;6.70;;;7.90;99.90;;;;;;4759134;28;20285;-70
2022/11/30 07:48:21;;;;;;;12.87;5.97;;;7.90;99.90;;;;;;4739978;28;20840;-72
2022/11/30 07:50:48;;;;;;;15.13;5.93;;;7.80;99.90;;;;;;4803789;28;20451;-72
2022/11/30 07:53:14;;;;;;;10.40;6.47;;;7.80;99.90;;;;;;5028847;28;20338;-71
2022/11/30 07:55:40;;;;;;;12.33;6.20;;;7.90;99.90;;;;;;5029566;28;20435;-71
2022/11/30 07:58:06;;;;;;;12.50;7.07;;;7.90;99.90;;;;;;4871691;28;20448;-71
2022/11/30 08:00:32;;;;;;;11.40;6.40;;;7.90;99.90;;;;;;4896122;28;20454;-71
2022/11/30 08:02:57;;;;;;;15.20;6.03;;;7.90;99.90;;;;;;4747140;28;20224;-71
2022/11/30 08:05:23;;;;;;;17.47;6.60;;;7.90;99.90;;;;;;4745880;28;20712;-71
2022/11/30 08:07:52;;;;;;;15.80;6.97;;;7.90;99.90;;;;;;4750581;28;20201;-70
2022/11/30 08:10:19;;;;;;;14.17;7.00;;;7.90;99.90;;;;;;4733527;28;20277;-71
2022/11/30 08:12:46;;;;;;;12.60;6.50;;;7.90;99.90;;;;;;4733675;28;20468;-71
2022/11/30 08:15:12;;;;;;;12.40;6.03;;;7.90;99.90;;;;;;4745196;28;20943;-71
2022/11/30 08:17:37;;;;;;;10.67;5.50;;;7.90;99.90;;;;;;4742614;28;20460;-72
2022/11/30 08:20:04;;;;;;;13.17;6.77;;;7.90;99.90;;;;;;4744685;28;20201;-70
2022/11/30 08:22:31;;;;;;;13.63;6.13;;;7.90;99.90;;;;;;4748169;28;20209;-71
2022/11/30 08:24:57;;;;;;;15.73;6.87;;;7.90;99.90;;;;;;4748210;28;20781;-71
2022/11/30 08:27:23;;;;;;;12.97;5.27;;;7.90;99.90;;;;;;4730820;28;20534;-70
2022/11/30 08:29:48;;;;;;;16.57;6.10;;;8.00;99.90;;;;;;4736555;28;20197;-72
2022/11/30 08:32:14;;;;;;;15.10;5.50;;;8.00;99.90;;;;;;4751728;28;20217;-71
2022/11/30 08:34:40;;;;;;;10.27;5.73;;;8.00;99.90;;;;;;4756084;28;20713;-71
2022/11/30 08:37:05;;;;;;;11.30;6.10;;;8.00;99.90;;;;;;4743901;28;20197;-71
2022/11/30 08:39:33;;;;;;;13.80;7.23;;;8.00;99.90;;;;;;4741907;28;20201;-71
2022/11/30 08:41:59;;;;;;;12.43;6.73;;;8.00;99.90;;;;;;4734956;28;20197;-71
2022/11/30 08:44:27;;;;;;;12.50;6.47;;;8.00;99.90;;;;;;4736606;28;20975;-71
2022/11/30 08:46:53;;;;;;;9.67;5.40;;;8.00;99.90;;;;;;4738624;28;20529;-71
2022/11/30 08:49:20;;;;;;;13.13;6.73;;;8.00;99.90;;;;;;4748108;28;21014;-71
2022/11/30 08:51:46;;;;;;;11.03;5.80;;;8.00;99.90;;;;;;4751571;28;20599;-72
2022/11/30 08:54:11;;;;;;;13.50;6.20;;;8.00;99.90;;;;;;4744311;28;20837;-71
2022/11/30 08:56:37;;;;;;;8.57;5.40;;;8.00;99.90;;;;;;4903634;28;20463;-71
2022/11/30 08:59:03;;;;;;;11.73;6.77;;;8.00;99.90;;;;;;5026074;28;20189;-71
2022/11/30 09:01:28;;;;;;;11.23;5.70;;;8.00;99.90;;;;;;5021450;28;20189;-71
2022/11/30 09:03:56;;;;;;;10.43;5.37;;;8.00;99.90;;;;;;4995103;28;20204;-71
2022/11/30 09:06:27;;;;;;;12.47;6.33;;;8.00;99.90;;;;;;4758387;28;20227;-72
2022/11/30 09:08:55;;;;;;;12.87;6.80;;;8.10;99.90;;;;;;4756161;28;20490;-71
2022/11/30 09:11:26;;;;;;;12.77;6.70;;;8.10;99.90;;;;;;5004921;28;20450;-71
2022/11/30 09:13:56;;;;;;;14.97;6.70;;;8.10;99.90;;;;;;5003593;28;20510;-70
2022/11/30 09:16:22;;;;;;;12.80;6.80;;;8.10;99.90;;;;;;5018049;28;20492;-71
2022/11/30 09:18:49;;;;;;;15.50;7.37;;;8.10;99.90;;;;;;5018123;28;20450;-71
2022/11/30 09:21:18;;;;;;;10.60;5.67;;;8.10;99.90;;;;;;5025420;28;20475;-71
2022/11/30 09:23:44;;;;;;;10.33;6.53;;;8.10;99.90;;;;;;5016847;28;21027;-70
2022/11/30 09:26:13;;;;;;;15.00;6.50;;;8.10;99.90;;;;;;5018700;28;20551;-71
2022/11/30 09:28:39;;;;;;;12.37;6.33;;;8.20;99.90;;;;;;4993959;28;20543;-71
2022/11/30 09:31:06;;;;;;;15.13;6.60;;;8.10;99.90;;;;;;5011590;28;20601;-71
2022/11/30 09:33:32;;;;;;;12.47;6.70;;;8.20;99.90;;;;;;5028583;28;20224;-71
2022/11/30 09:36:00;;;;;;;14.53;6.73;;;8.20;99.90;;;;;;5020194;28;20821;-70
2022/11/30 09:38:26;;;;;;;13.63;7.53;;;8.20;99.90;;;;;;5009078;28;20502;-71
2022/11/30 09:40:57;;;;;;;14.00;7.03;;;8.20;99.90;;;;;;5028543;28;20471;-71
2022/11/30 09:43:56;;;;;;;12.20;6.77;;;8.20;99.90;;;;;;5018229;28;20480;-71
2022/11/30 09:46:29;;;;;;;11.53;5.70;;;8.20;99.90;;;;;;5017924;28;20468;-71
2022/11/30 09:49:04;;;;;;;9.23;5.70;;;8.20;99.90;;;;;;5009828;28;20443;-71
2022/11/30 09:51:45;;;;;;;9.57;5.17;;;8.20;99.90;;;;;;5026240;28;20869;-71
2022/11/30 09:54:15;;;;;;;6.80;4.50;;;8.20;99.90;;;;;;5026013;28;20455;-71
2022/11/30 09:56:42;;;;;;;7.57;4.27;;;8.20;99.90;;;;;;5026588;28;20450;-71
2022/11/30 09:59:20;;;;;;;9.10;5.47;;;8.20;99.90;;;;;;5030956;28;21033;-71
2022/11/30 10:01:47;;;;;;;9.00;5.10;;;8.30;99.90;;;;;;5026889;28;21152;-71
2022/11/30 10:04:24;;;;;;;8.80;6.03;;;8.30;99.90;;;;;;5020067;28;20912;-71
2022/11/30 10:07:07;;;;;;;11.23;5.87;;;8.30;99.90;;;;;;5025276;28;20491;-71
2022/11/30 10:09:48;;;;;;;11.30;4.80;;;8.30;99.90;;;;;;5026646;28;20954;-71
2022/11/30 10:12:23;;;;;;;6.80;4.73;;;8.30;99.90;;;;;;5030845;28;20597;-71
2022/11/30 10:14:57;;;;;;;11.47;6.00;;;8.30;99.90;;;;;;5027034;28;20462;-73
2022/11/30 10:17:35;;;;;;;8.73;5.13;;;8.30;99.90;;;;;;5012394;28;20551;-71
2022/11/30 10:20:17;;;;;;;8.37;4.40;;;8.40;99.90;;;;;;5024445;28;20810;-71
2022/11/30 10:23:13;;;;;;;11.77;5.73;;;8.40;99.90;;;;;;5029945;28;20458;-71
2022/11/30 10:26:02;;;;;;;11.30;5.80;;;8.40;99.90;;;;;;5010773;28;20521;-72
2022/11/30 10:28:30;;;;;;;9.40;4.97;;;8.40;99.90;;;;;;5008690;28;20832;-71
2022/11/30 10:30:56;;;;;;;12.47;6.70;;;8.40;99.90;;;;;;5031748;28;20454;-71
2022/11/30 10:33:29;;;;;;;12.67;7.57;;;8.40;99.90;;;;;;5023502;28;20474;-71
2022/11/30 10:36:02;;;;;;;12.90;7.10;;;8.40;99.90;;;;;;5024126;28;20874;-69
2022/11/30 10:38:29;;;;;;;13.93;7.40;;;8.40;99.90;;;;;;5027025;28;20443;-71
2022/11/30 10:41:00;;;;;;;11.50;6.13;;;8.40;99.90;;;;;;5019494;28;20491;-71
2022/11/30 10:43:49;;;;;;;10.30;5.70;;;8.40;99.90;;;;;;5022534;28;20476;-71
2022/11/30 10:46:28;;;;;;;13.90;6.90;;;8.40;99.90;;;;;;5018159;28;20476;-71
2022/11/30 10:49:01;;;;;;;15.57;6.97;;;8.50;99.90;;;;;;5025880;28;20466;-71
2022/11/30 10:51:27;;;;;;;10.83;6.37;;;8.50;99.90;;;;;;5024326;28;20874;-71
2022/11/30 10:53:53;;;;;;;11.90;6.73;;;8.50;99.90;;;;;;5026919;28;20467;-70
2022/11/30 10:56:19;;;;;;;11.33;7.23;;;8.50;99.90;;;;;;5027577;28;20452;-71
2022/11/30 10:58:55;;;;;;;14.10;7.53;;;8.50;99.90;;;;;;5029075;28;20216;-71
2022/11/30 11:01:35;;;;;;;10.53;6.77;;;8.50;99.90;;;;;;5006067;28;20248;-71
2022/11/30 11:04:17;;;;;;;9.17;5.70;;;8.50;99.90;;;;;;5028973;28;21002;-71
2022/11/30 11:07:13;;;;;;;13.73;7.57;;;8.50;99.90;;;;;;5024632;28;20549;-71
2022/11/30 11:09:39;;;;;;;8.77;5.27;;;8.50;99.90;;;;;;5015528;28;20456;-71
2022/11/30 11:12:24;;;;;;;11.30;5.40;;;8.60;99.90;;;;;;5014817;28;20866;-71
2022/11/30 11:15:16;;;;;;;14.50;6.50;;;8.50;99.90;;;;;;5025246;28;20496;-71
2022/11/30 11:17:41;;;;;;;9.37;6.10;;;8.50;99.90;;;;;;5022910;28;20451;-71
2022/11/30 11:20:32;;;;;;;12.20;6.57;;;8.50;99.90;;;;;;5026501;28;20455;-71
2022/11/30 11:22:57;;;;;;;14.10;6.63;;;8.50;99.90;;;;;;5028659;28;20236;-71
2022/11/30 11:25:35;;;;;;;10.40;6.60;;;8.50;99.90;;;;;;5011051;28;20480;-72
2022/11/30 11:28:16;;;;;;;12.70;7.40;;;8.60;99.90;;;;;;5019942;28;20224;-71
2022/11/30 11:30:41;;;;;;;13.77;7.63;;;8.60;99.90;;;;;;5021753;28;20534;-71
2022/11/30 11:33:10;;;;;;;16.03;7.90;;;8.60;99.90;;;;;;5009836;28;20543;-71
2022/11/30 11:35:40;;;;;;;11.20;7.10;;;8.60;99.90;;;;;;5025189;28;20209;-71
2022/11/30 11:38:27;;;;;;;10.60;5.83;;;8.60;99.90;;;;;;5018565;28;20451;-71
2022/11/30 11:40:52;;;;;;;16.47;7.93;;;8.60;99.90;;;;;;5022667;28;20550;-71
2022/11/30 11:43:18;;;;;;;12.07;6.80;;;8.60;99.90;;;;;;5027942;28;20547;-71
2022/11/30 11:45:57;;;;;;;15.97;7.30;;;8.60;99.90;;;;;;5014618;28;20228;-72
2022/11/30 11:48:57;;;;;;;13.33;6.73;;;8.60;99.90;;;;;;5018434;28;20706;-71
2022/11/30 11:51:58;;;;;;;14.37;7.50;;;8.60;99.90;;;;;;5009389;28;20820;-72
2022/11/30 11:54:32;;;;;;;11.70;6.07;;;8.60;99.90;;;;;;5020362;28;20462;-71
2022/11/30 11:56:58;;;;;;;14.43;7.47;;;8.60;99.90;;;;;;5027216;28;20868;-70
2022/11/30 11:59:23;;;;;;;12.07;6.83;;;8.60;99.90;;;;;;5017360;28;20586;-71
2022/11/30 12:02:09;;;;;;;17.50;8.20;;;8.60;99.90;;;;;;5012114;28;20450;-71
2022/11/30 12:04:41;;;;;;;15.40;8.27;;;8.70;99.90;;;;;;5021960;28;20224;-71
2022/11/30 12:07:32;;;;;;;19.47;9.20;;;8.70;99.90;;;;;;5021539;28;20524;-71
2022/11/30 12:10:18;;;;;;;16.70;7.67;;;8.70;99.90;;;;;;5015236;28;20468;-71
2022/11/30 12:12:44;;;;;;;15.70;8.50;;;8.70;99.90;;;;;;5018321;28;20463;-71
2022/11/30 12:15:14;;;;;;;16.43;8.53;;;8.70;99.90;;;;;;5027217;28;20517;-71
2022/11/30 12:17:57;;;;;;;18.43;8.90;;;8.70;99.90;;;;;;5011346;28;20221;-70
2022/11/30 12:20:27;;;;;;;19.63;9.27;;;8.70;99.90;;;;;;5023315;28;20472;-71
2022/11/30 12:23:32;;;;;;;22.50;11.17;;;8.70;99.90;;;;;;5017456;28;20920;-71
2022/11/30 12:26:06;;;;;;;15.20;9.30;;;8.70;99.90;;;;;;5016608;28;20456;-71
2022/11/30 12:29:00;;;;;;;17.20;9.57;;;8.70;99.90;;;;;;5011761;28;20962;-71
2022/11/30 12:31:44;;;;;;;19.43;9.43;;;8.70;99.90;;;;;;5018901;28;20880;-71
2022/11/30 12:34:18;;;;;;;15.10;8.90;;;8.70;99.90;;;;;;5021299;28;20986;-71
2022/11/30 12:36:53;;;;;;;17.30;8.97;;;8.80;99.90;;;;;;5017651;28;20463;-72
2022/11/30 12:40:06;;;;;;;15.63;8.83;;;8.70;99.90;;;;;;5002964;28;20456;-72
2022/11/30 12:42:48;;;;;;;20.67;10.00;;;8.70;99.90;;;;;;5011492;28;20467;-70
2022/11/30 12:45:23;;;;;;;20.60;10.00;;;8.70;99.90;;;;;;5018846;28;20521;-72
2022/11/30 12:48:15;;;;;;;18.73;10.30;;;8.80;99.90;;;;;;5015313;28;20553;-71
2022/11/30 12:50:50;;;;;;;12.93;8.50;;;8.80;99.90;;;;;;5015786;28;20460;-71
2022/11/30 12:53:30;;;;;;;17.37;8.20;;;8.70;99.90;;;;;;5014954;28;20462;-71
2022/11/30 12:55:59;;;;;;;12.40;7.37;;;8.70;99.90;;;;;;5022466;28;20518;-70
2022/11/30 12:58:35;;;;;;;15.50;7.97;;;8.70;99.90;;;;;;5017387;28;20479;-71